Weather at Altisurface du Clos de Legua

Public forecast

Using degrees Celsius for public forecast. Weather courtesy of forecast.io.

Closest aviation weather report (METAR) to Altisurface du Clos de Legua

Report is more than 6 hours old.

Closest report is Pirineus - la Seu d'Urgel Airport, 33.7 nm (62.4 km) SW. Retrieved 2020/09/21 16:30 UTC (2 days ago):

LESU 211630Z VRB02KT 9999 -RA VCFG FEW001 SCT072 OVC081 14/14 Q1018

Closest aviation forecast (TAF) to Altisurface du Clos de Legua

Closest forecast is Pirineus - la Seu d'Urgel Airport, 33.7 nm (62.4 km) SW. Retrieved 2020-09-24 03:00 UTC (1 hour ago):

TAF LESU 240200Z 2403/2503 VRB04KT 9999 FEW050 TX26/2414Z TN15/2406Z BECMG 2410/2412 25010KT BECMG 2418/2420 VRB03KT